Time;durP1;ratioP1;P1;durP2;ratioP2;P2;SDS_P1;SDS_P2;PMS_P1;PMS_P2;Temp;Humidity;BMP_temperature;BMP_pressure;BME280_temperature;BME280_humidity;BME280_pressure;Samples;Min_cycle;Max_cycle;Signal;HPM_P1;HPM_P2
2022/10/26 00:00:07;;;;;;;2.83;1.37;;;15.50;97.60;;;;;;4975857;28;20084;-79
2022/10/26 00:02:33;;;;;;;3.83;1.38;;;15.50;97.60;;;;;;4988725;28;20229;-79
2022/10/26 00:04:58;;;;;;;2.87;1.40;;;15.50;97.60;;;;;;4996155;28;20025;-79
2022/10/26 00:07:24;;;;;;;3.85;1.42;;;15.50;97.70;;;;;;4967258;28;20037;-80
2022/10/26 00:09:49;;;;;;;2.10;1.27;;;15.40;97.70;;;;;;4998087;28;20441;-79
2022/10/26 00:12:15;;;;;;;2.63;1.50;;;15.50;97.70;;;;;;4985146;28;20030;-79
2022/10/26 00:14:41;;;;;;;2.53;1.30;;;15.50;97.80;;;;;;4985119;28;20033;-79
2022/10/26 00:17:06;;;;;;;4.20;1.30;;;15.50;97.80;;;;;;4985684;28;20101;-79
2022/10/26 00:19:33;;;;;;;2.57;1.33;;;15.40;97.90;;;;;;4989779;28;20143;-80
2022/10/26 00:21:59;;;;;;;2.20;1.20;;;15.40;97.80;;;;;;4977850;28;20482;-80
2022/10/26 00:24:25;;;;;;;2.42;1.20;;;15.40;97.90;;;;;;4984696;28;20329;-80
2022/10/26 00:26:51;;;;;;;2.30;1.20;;;15.50;98.00;;;;;;4980104;28;20393;-80
2022/10/26 00:29:17;;;;;;;2.78;1.35;;;15.40;98.00;;;;;;4968260;28;20129;-79
2022/10/26 00:31:43;;;;;;;3.23;1.30;;;15.40;98.10;;;;;;4983282;28;20434;-79
2022/10/26 00:34:10;;;;;;;3.40;1.50;;;15.40;98.10;;;;;;4986316;28;20017;-79
2022/10/26 00:36:36;;;;;;;1.92;1.25;;;15.40;98.10;;;;;;4990198;28;20285;-80
2022/10/26 00:39:02;;;;;;;2.93;1.30;;;15.40;98.10;;;;;;4978928;28;20034;-79
2022/10/26 00:41:30;;;;;;;2.00;1.30;;;15.40;98.20;;;;;;4985252;28;20239;-80
2022/10/26 00:43:55;;;;;;;2.13;1.10;;;15.40;98.20;;;;;;4998052;28;20109;-79
2022/10/26 00:46:34;;;;;;;3.13;1.30;;;15.40;98.20;;;;;;4981003;28;20466;-80
2022/10/26 00:49:14;;;;;;;3.30;1.17;;;15.40;97.90;;;;;;4974460;28;20212;-79
2022/10/26 00:51:50;;;;;;;3.10;1.27;;;15.40;97.90;;;;;;4993891;28;20552;-79
2022/10/26 00:54:18;;;;;;;2.20;1.20;;;15.40;98.00;;;;;;4956300;28;20018;-79
2022/10/26 00:56:45;;;;;;;1.52;1.15;;;15.40;98.10;;;;;;4997456;28;20069;-80
2022/10/26 00:59:13;;;;;;;3.20;1.10;;;15.30;98.20;;;;;;4994739;28;20494;-79
2022/10/26 01:01:42;;;;;;;2.85;1.30;;;15.30;98.30;;;;;;4967056;28;20131;-80
2022/10/26 01:04:09;;;;;;;2.65;1.17;;;15.40;98.30;;;;;;4980550;28;20186;-80
2022/10/26 01:06:36;;;;;;;2.10;1.17;;;15.30;98.40;;;;;;4991302;28;20318;-80
2022/10/26 01:09:03;;;;;;;2.47;1.20;;;15.40;98.40;;;;;;4971244;28;20018;-80
2022/10/26 01:11:29;;;;;;;1.40;1.00;;;15.40;98.40;;;;;;4973867;28;20264;-81
2022/10/26 01:13:57;;;;;;;3.20;1.10;;;15.30;98.40;;;;;;4994811;28;20057;-80
2022/10/26 01:16:38;;;;;;;3.38;1.40;;;15.30;98.40;;;;;;4969749;28;20218;-80
2022/10/26 01:19:31;;;;;;;2.10;1.13;;;15.30;98.20;;;;;;4970552;28;20147;-80
2022/10/26 01:22:02;;;;;;;1.77;1.02;;;15.40;98.40;;;;;;4971444;28;20030;-81
2022/10/26 01:24:52;;;;;;;1.77;1.00;;;15.30;98.40;;;;;;4970506;28;21345;-80
2022/10/26 01:27:24;;;;;;;2.40;1.20;;;15.30;98.40;;;;;;4994820;28;20540;-81
2022/10/26 01:29:52;;;;;;;2.08;1.05;;;15.30;98.40;;;;;;4998664;28;20120;-81
2022/10/26 01:32:30;;;;;;;2.33;1.20;;;15.30;98.50;;;;;;4973575;28;20287;-80
2022/10/26 01:35:06;;;;;;;1.42;0.90;;;15.20;98.30;;;;;;4990760;28;20104;-80
2022/10/26 01:37:37;;;;;;;3.37;1.17;;;15.30;98.30;;;;;;4990092;28;20213;-80
2022/10/26 01:40:33;;;;;;;1.92;1.08;;;15.20;98.30;;;;;;4951988;28;20037;-81
2022/10/26 01:43:03;;;;;;;2.13;1.00;;;15.20;98.10;;;;;;4983570;28;20037;-80
2022/10/26 01:45:32;;;;;;;2.75;1.02;;;15.20;98.40;;;;;;4986504;28;20235;-81
2022/10/26 01:48:00;;;;;;;1.75;1.00;;;15.20;98.40;;;;;;4984660;28;20060;-80
2022/10/26 01:50:27;;;;;;;2.07;0.90;;;15.20;98.50;;;;;;4985231;28;22439;-80
2022/10/26 01:52:53;;;;;;;1.95;0.90;;;15.20;98.50;;;;;;4986197;28;20113;-81
2022/10/26 01:55:41;;;;;;;2.60;0.93;;;15.20;98.50;;;;;;4971872;28;20426;-80
2022/10/26 01:58:41;;;;;;;2.75;1.00;;;15.10;98.30;;;;;;4986077;28;20033;-81
2022/10/26 02:01:41;;;;;;;1.48;1.00;;;15.10;98.40;;;;;;4957255;28;20576;-80
2022/10/26 02:04:36;;;;;;;2.43;1.10;;;15.10;98.50;;;;;;4958527;28;20037;-80
2022/10/26 02:07:22;;;;;;;1.55;1.02;;;15.10;98.50;;;;;;4971057;28;20045;-80
2022/10/26 02:10:03;;;;;;;1.92;0.90;;;15.10;98.60;;;;;;4974052;28;20604;-80
2022/10/26 02:12:46;;;;;;;1.92;0.90;;;15.10;98.80;;;;;;4975151;28;20026;-80
2022/10/26 02:15:18;;;;;;;2.38;0.93;;;15.10;98.80;;;;;;4978093;28;20037;-81
2022/10/26 02:17:49;;;;;;;2.30;1.00;;;15.10;99.00;;;;;;4988636;28;20040;-80
2022/10/26 02:20:27;;;;;;;1.15;0.80;;;15.10;99.00;;;;;;4976989;28;20030;-80
2022/10/26 02:22:55;;;;;;;3.00;0.90;;;15.10;99.00;;;;;;4988160;28;20022;-81
2022/10/26 02:25:32;;;;;;;1.40;0.90;;;15.10;99.20;;;;;;4975728;28;20248;-80
2022/10/26 02:28:03;;;;;;;2.03;0.95;;;15.10;99.10;;;;;;4962646;28;20034;-80
2022/10/26 02:30:30;;;;;;;3.27;0.90;;;15.10;99.30;;;;;;5005053;28;20143;-80
2022/10/26 02:32:57;;;;;;;3.33;1.10;;;15.10;99.30;;;;;;4978622;28;20525;-80
2022/10/26 02:35:28;;;;;;;2.20;1.00;;;15.10;99.30;;;;;;4985501;28;20025;-81
2022/10/26 02:37:57;;;;;;;1.75;0.90;;;15.10;99.30;;;;;;4982679;28;20026;-80
2022/10/26 02:40:26;;;;;;;2.53;0.85;;;15.20;99.40;;;;;;4986458;28;20278;-80
2022/10/26 02:42:54;;;;;;;1.23;0.87;;;15.20;99.40;;;;;;4979291;28;20069;-81
2022/10/26 02:45:24;;;;;;;1.80;0.80;;;15.20;99.50;;;;;;4988248;28;20239;-80
2022/10/26 02:47:51;;;;;;;2.53;0.88;;;15.20;99.50;;;;;;4992030;28;20037;-81
2022/10/26 02:50:19;;;;;;;2.10;0.90;;;15.20;99.60;;;;;;4978595;28;20156;-80
2022/10/26 02:52:48;;;;;;;1.70;0.90;;;15.20;99.60;;;;;;4994058;28;20026;-81
2022/10/26 02:55:23;;;;;;;1.63;0.90;;;15.20;99.60;;;;;;4968039;28;20084;-80
2022/10/26 02:57:58;;;;;;;2.17;0.90;;;15.20;99.70;;;;;;4976922;28;20030;-80
2022/10/26 03:00:25;;;;;;;1.55;0.90;;;15.20;99.70;;;;;;4979762;28;20268;-81
2022/10/26 03:02:58;;;;;;;1.35;1.00;;;15.30;99.90;;;;;;4996947;28;20107;-80
2022/10/26 03:05:31;;;;;;;5.43;1.00;;;15.30;99.80;;;;;;4982002;28;20752;-81
2022/10/26 03:07:57;;;;;;;1.30;0.80;;;15.30;99.90;;;;;;5000216;28;20037;-80
2022/10/26 03:10:23;;;;;;;1.58;0.90;;;15.30;99.90;;;;;;4982648;28;20294;-80
2022/10/26 03:12:49;;;;;;;2.00;0.90;;;15.30;99.90;;;;;;4998153;28;20034;-81
2022/10/26 03:15:14;;;;;;;2.53;0.80;;;15.30;99.90;;;;;;4973711;28;20247;-81
2022/10/26 03:17:40;;;;;;;3.25;0.82;;;15.30;99.90;;;;;;4995453;28;20041;-81
2022/10/26 03:20:07;;;;;;;3.23;0.93;;;15.40;99.90;;;;;;4984949;28;20030;-81
2022/10/26 03:22:32;;;;;;;1.80;1.00;;;15.40;99.90;;;;;;4969121;28;20250;-81
2022/10/26 03:24:58;;;;;;;1.93;1.00;;;15.40;99.90;;;;;;4996590;28;20046;-80
2022/10/26 03:27:23;;;;;;;1.10;0.88;;;15.40;99.90;;;;;;4970583;28;20274;-80
2022/10/26 03:29:49;;;;;;;1.60;0.77;;;15.50;99.90;;;;;;4965706;28;20372;-81
2022/10/26 03:32:15;;;;;;;2.90;0.90;;;15.50;99.90;;;;;;4963547;28;20081;-81
2022/10/26 03:34:40;;;;;;;1.60;0.90;;;15.50;99.90;;;;;;4989379;28;20038;-81
2022/10/26 03:37:06;;;;;;;2.07;0.70;;;15.50;99.90;;;;;;4988575;28;20026;-80
2022/10/26 03:39:31;;;;;;;1.15;0.80;;;15.50;99.90;;;;;;4994321;28;20031;-81
2022/10/26 03:41:58;;;;;;;1.77;0.80;;;15.50;99.90;;;;;;4967729;28;20034;-81
2022/10/26 03:44:24;;;;;;;1.77;0.90;;;15.50;99.90;;;;;;4964994;28;20033;-80
2022/10/26 03:46:49;;;;;;;1.60;0.87;;;15.50;99.90;;;;;;4995948;28;20014;-80
2022/10/26 03:49:15;;;;;;;1.98;1.00;;;15.60;99.90;;;;;;4972388;28;20353;-80
2022/10/26 03:51:40;;;;;;;1.37;0.80;;;15.60;99.90;;;;;;4996490;28;20026;-81
2022/10/26 03:54:06;;;;;;;2.17;0.80;;;15.60;99.90;;;;;;4984306;28;20529;-80
2022/10/26 03:56:32;;;;;;;1.40;0.73;;;15.60;99.90;;;;;;4995874;28;20481;-80
2022/10/26 03:58:57;;;;;;;2.80;0.90;;;15.60;99.90;;;;;;4987156;28;20143;-81
2022/10/26 04:01:23;;;;;;;1.40;0.90;;;15.60;99.90;;;;;;4970805;28;20676;-80
2022/10/26 04:03:48;;;;;;;3.43;1.03;;;15.60;99.90;;;;;;4995678;28;20496;-80
2022/10/26 04:06:14;;;;;;;1.88;0.80;;;15.60;99.90;;;;;;4993706;28;20597;-81
2022/10/26 04:08:40;;;;;;;3.37;0.80;;;15.60;99.90;;;;;;4995623;28;20030;-81
2022/10/26 04:11:06;;;;;;;2.05;0.90;;;15.60;99.90;;;;;;4977461;28;20048;-80
2022/10/26 04:13:32;;;;;;;2.27;0.73;;;15.60;99.90;;;;;;4971968;28;20034;-80
2022/10/26 04:15:58;;;;;;;1.80;0.90;;;15.70;99.90;;;;;;4960402;28;20037;-80
2022/10/26 04:18:23;;;;;;;1.83;0.80;;;15.60;99.90;;;;;;4984311;28;20034;-80
2022/10/26 04:20:49;;;;;;;1.33;0.80;;;15.70;99.90;;;;;;4981052;28;20058;-80
2022/10/26 04:23:17;;;;;;;1.90;0.90;;;15.70;99.90;;;;;;4984419;28;20263;-80
2022/10/26 04:25:44;;;;;;;2.42;0.90;;;15.60;99.90;;;;;;4984406;28;20065;-81
2022/10/26 04:28:11;;;;;;;1.50;0.90;;;15.70;99.90;;;;;;4981804;28;20092;-81
2022/10/26 04:30:37;;;;;;;2.22;1.00;;;15.60;99.90;;;;;;4964839;28;20038;-80
2022/10/26 04:33:04;;;;;;;1.50;0.90;;;15.70;99.90;;;;;;4952361;28;20590;-81
2022/10/26 04:35:30;;;;;;;1.70;0.90;;;15.60;99.90;;;;;;4995089;28;20030;-80
2022/10/26 04:37:58;;;;;;;0.93;0.77;;;15.60;99.90;;;;;;4991273;28;20477;-80
2022/10/26 04:40:24;;;;;;;1.87;0.90;;;15.70;99.90;;;;;;4969438;28;20024;-80
2022/10/26 04:42:49;;;;;;;0.93;0.82;;;15.70;99.90;;;;;;4993448;28;20238;-80
2022/10/26 04:45:15;;;;;;;1.03;0.83;;;15.60;99.90;;;;;;4974260;28;20683;-80
2022/10/26 04:47:41;;;;;;;1.92;0.77;;;15.70;99.90;;;;;;4973984;28;20168;-80
2022/10/26 04:50:09;;;;;;;1.83;0.80;;;15.60;99.90;;;;;;4974481;28;20494;-81
2022/10/26 04:52:35;;;;;;;1.20;0.80;;;15.60;99.90;;;;;;4990414;28;20470;-81
2022/10/26 04:55:04;;;;;;;2.10;0.80;;;15.70;99.90;;;;;;4970405;28;20121;-80
2022/10/26 04:57:33;;;;;;;1.48;0.70;;;15.70;99.90;;;;;;4993128;28;20052;-81
2022/10/26 05:00:00;;;;;;;1.48;0.80;;;15.70;99.90;;;;;;4978948;28;20023;-81
2022/10/26 05:02:29;;;;;;;2.47;0.93;;;15.70;99.90;;;;;;4944551;28;20231;-80
2022/10/26 05:04:55;;;;;;;1.85;0.90;;;15.70;99.90;;;;;;4999863;28;20011;-80
2022/10/26 05:07:20;;;;;;;1.60;0.90;;;15.70;99.90;;;;;;4984408;28;20030;-81
2022/10/26 05:09:46;;;;;;;2.13;0.80;;;15.70;99.90;;;;;;4976459;28;20033;-81
2022/10/26 05:12:12;;;;;;;1.23;0.85;;;15.70;99.90;;;;;;4952038;28;20030;-80
2022/10/26 05:14:37;;;;;;;1.53;0.93;;;15.70;99.90;;;;;;4980674;28;22126;-80
2022/10/26 05:17:03;;;;;;;3.85;1.00;;;15.70;99.90;;;;;;4993964;28;20091;-81
2022/10/26 05:19:29;;;;;;;2.10;0.88;;;15.70;99.90;;;;;;4960302;28;20136;-80
2022/10/26 05:21:55;;;;;;;2.00;1.10;;;15.70;99.90;;;;;;4997792;28;20026;-81
2022/10/26 05:24:20;;;;;;;1.70;0.90;;;15.70;99.90;;;;;;4967980;28;20033;-81
2022/10/26 05:26:46;;;;;;;2.58;1.05;;;15.70;99.90;;;;;;4985491;28;20030;-81
2022/10/26 05:29:11;;;;;;;2.07;1.30;;;15.70;99.90;;;;;;4995913;28;20528;-80
2022/10/26 05:31:37;;;;;;;2.22;1.10;;;15.70;99.90;;;;;;4955851;28;20451;-81
2022/10/26 05:34:03;;;;;;;2.87;1.20;;;15.70;99.90;;;;;;4996862;28;20052;-80
2022/10/26 05:36:28;;;;;;;1.73;1.13;;;15.80;99.90;;;;;;4965215;28;20088;-81
2022/10/26 05:38:57;;;;;;;1.30;0.90;;;15.80;99.90;;;;;;4973827;28;20041;-81
2022/10/26 05:41:23;;;;;;;2.35;0.93;;;15.80;99.90;;;;;;4963995;28;20026;-81
2022/10/26 05:43:48;;;;;;;2.30;0.80;;;15.80;99.90;;;;;;4976068;28;20034;-81
2022/10/26 05:46:14;;;;;;;2.47;0.80;;;15.80;99.90;;;;;;4960617;28;20017;-81
2022/10/26 05:48:40;;;;;;;2.03;1.07;;;15.80;99.90;;;;;;4985208;28;20023;-81
2022/10/26 05:51:05;;;;;;;1.98;0.90;;;15.90;99.90;;;;;;4951828;28;20490;-81
2022/10/26 05:53:31;;;;;;;3.23;1.00;;;15.90;99.90;;;;;;4965042;28;20120;-82
2022/10/26 05:55:57;;;;;;;1.58;0.90;;;15.90;99.90;;;;;;4977952;28;20087;-81
2022/10/26 05:58:23;;;;;;;2.25;0.93;;;15.90;99.90;;;;;;4961851;28;20225;-81
2022/10/26 06:01:27;;;;;;;1.80;0.93;;;16.00;99.90;;;;;;4979452;28;20106;-81
2022/10/26 06:04:21;;;;;;;2.92;0.90;;;16.00;99.90;;;;;;4969193;28;20062;-81
2022/10/26 06:06:51;;;;;;;1.45;0.90;;;16.00;99.90;;;;;;4958072;28;20105;-80
2022/10/26 06:09:17;;;;;;;1.60;0.77;;;16.10;99.90;;;;;;4991417;28;20482;-81
2022/10/26 06:11:43;;;;;;;2.50;0.80;;;16.10;99.90;;;;;;4939690;28;20033;-81
2022/10/26 06:14:09;;;;;;;1.20;0.90;;;16.10;99.90;;;;;;4973064;28;20040;-81
2022/10/26 06:16:39;;;;;;;3.05;0.90;;;16.20;99.90;;;;;;4977247;28;20042;-80
2022/10/26 06:19:17;;;;;;;1.35;0.85;;;16.20;99.90;;;;;;4957827;28;20252;-81
2022/10/26 06:22:24;;;;;;;2.22;1.00;;;16.20;99.90;;;;;;4963669;28;20597;-80
2022/10/26 06:25:09;;;;;;;2.15;1.05;;;16.20;99.90;;;;;;4892428;29;20999;-80
2022/10/26 06:27:47;;;;;;;3.27;1.00;;;16.20;99.90;;;;;;4952978;28;20042;-81
2022/10/26 06:30:12;;;;;;;1.40;0.80;;;16.20;99.90;;;;;;4987022;28;20038;-81
2022/10/26 06:32:40;;;;;;;1.30;0.90;;;16.20;99.90;;;;;;4956299;28;20282;-81
2022/10/26 06:35:34;;;;;;;2.67;1.10;;;16.20;99.90;;;;;;4986569;28;20310;-80
2022/10/26 06:38:03;;;;;;;1.88;0.90;;;16.30;99.90;;;;;;4965275;28;20030;-81
2022/10/26 06:40:34;;;;;;;2.45;0.90;;;16.20;99.90;;;;;;4976852;28;20018;-80
2022/10/26 06:43:00;;;;;;;1.30;0.80;;;16.20;99.90;;;;;;4960320;28;20439;-81
2022/10/26 06:45:26;;;;;;;1.17;0.80;;;16.30;99.90;;;;;;4984881;28;20340;-81
2022/10/26 06:47:56;;;;;;;2.60;1.00;;;16.30;99.90;;;;;;4973582;28;20066;-81
2022/10/26 06:50:38;;;;;;;1.55;1.00;;;16.30;99.90;;;;;;4988604;28;20137;-81
2022/10/26 06:53:27;;;;;;;1.77;0.90;;;16.30;99.90;;;;;;4953662;28;20036;-81
2022/10/26 06:55:53;;;;;;;1.70;0.85;;;16.40;99.90;;;;;;4992751;28;20033;-80
2022/10/26 06:58:22;;;;;;;1.50;0.90;;;16.40;99.90;;;;;;4942637;28;20037;-80
2022/10/26 07:00:50;;;;;;;1.80;1.10;;;16.50;99.90;;;;;;4991584;28;20534;-81
2022/10/26 07:03:15;;;;;;;2.00;1.00;;;16.50;99.90;;;;;;4977561;28;20033;-80
2022/10/26 07:05:42;;;;;;;1.87;1.00;;;16.60;99.90;;;;;;4991795;28;20406;-82
2022/10/26 07:08:08;;;;;;;2.15;1.00;;;16.60;99.90;;;;;;4974456;28;20042;-81
2022/10/26 07:10:37;;;;;;;2.97;1.10;;;16.70;99.90;;;;;;4990978;28;20260;-81
2022/10/26 07:13:07;;;;;;;3.30;1.38;;;16.70;99.90;;;;;;4995151;28;20030;-81
2022/10/26 07:15:34;;;;;;;2.60;0.90;;;16.70;99.90;;;;;;4980208;28;20529;-82
2022/10/26 07:18:02;;;;;;;1.88;1.10;;;16.70;99.90;;;;;;4950692;28;20430;-81
2022/10/26 07:20:27;;;;;;;2.40;1.10;;;16.80;99.90;;;;;;4983059;28;20025;-81
2022/10/26 07:22:54;;;;;;;2.77;1.00;;;16.80;99.90;;;;;;4972306;28;20398;-81
2022/10/26 07:25:21;;;;;;;2.00;1.00;;;16.90;99.90;;;;;;4966605;28;20277;-81
2022/10/26 07:27:47;;;;;;;2.95;1.00;;;16.90;99.90;;;;;;4957139;28;20205;-81
2022/10/26 07:30:13;;;;;;;2.35;1.13;;;17.00;99.90;;;;;;4982100;28;20038;-81
2022/10/26 07:32:39;;;;;;;1.30;1.00;;;17.10;99.90;;;;;;4971111;28;20686;-80
2022/10/26 07:35:05;;;;;;;2.22;1.20;;;17.20;99.90;;;;;;4980717;28;20030;-81
2022/10/26 07:37:30;;;;;;;2.53;1.10;;;17.40;99.90;;;;;;4986520;28;20057;-81
2022/10/26 07:39:56;;;;;;;1.88;0.90;;;17.50;99.90;;;;;;4966141;28;20482;-81
2022/10/26 07:42:21;;;;;;;1.80;1.10;;;17.70;99.90;;;;;;4952302;28;20030;-80
2022/10/26 07:44:47;;;;;;;2.20;1.02;;;17.80;99.90;;;;;;4951282;28;20727;-81
2022/10/26 07:47:13;;;;;;;4.73;1.00;;;17.80;99.90;;;;;;4971981;28;20040;-81
2022/10/26 07:49:39;;;;;;;2.45;1.08;;;17.90;99.90;;;;;;4965670;28;20437;-81
2022/10/26 07:52:04;;;;;;;2.33;1.10;;;17.90;99.90;;;;;;4976808;28;20034;-81
2022/10/26 07:54:31;;;;;;;2.10;1.10;;;18.00;99.90;;;;;;4956387;28;20026;-81
2022/10/26 07:56:57;;;;;;;3.33;1.20;;;18.00;99.90;;;;;;4996668;28;20026;-81
2022/10/26 07:59:23;;;;;;;3.13;1.20;;;17.90;99.90;;;;;;4965594;28;20065;-82
2022/10/26 08:01:48;;;;;;;2.53;1.15;;;18.00;99.90;;;;;;4982808;28;20545;-81
2022/10/26 08:04:14;;;;;;;1.83;1.00;;;18.00;99.90;;;;;;4966740;28;20034;-81
2022/10/26 08:06:40;;;;;;;3.50;1.20;;;18.00;99.90;;;;;;4976826;28;20022;-82
2022/10/26 08:09:05;;;;;;;2.50;1.20;;;18.00;99.90;;;;;;4981525;28;20061;-82
2022/10/26 08:11:31;;;;;;;1.60;1.17;;;18.00;99.90;;;;;;4959436;28;20778;-81
2022/10/26 08:13:57;;;;;;;2.17;1.25;;;18.10;99.90;;;;;;4979722;28;20021;-81
2022/10/26 08:16:23;;;;;;;4.87;1.20;;;18.10;99.90;;;;;;4987836;28;20132;-81
2022/10/26 08:18:49;;;;;;;3.58;1.30;;;18.10;99.90;;;;;;4967757;28;20291;-81
2022/10/26 08:21:15;;;;;;;2.42;1.02;;;18.10;99.90;;;;;;4990307;28;20409;-81
2022/10/26 08:23:41;;;;;;;2.47;1.27;;;18.10;99.90;;;;;;4973867;28;20152;-82
2022/10/26 08:26:10;;;;;;;1.90;1.10;;;18.20;99.90;;;;;;4942693;28;20057;-81
2022/10/26 08:28:36;;;;;;;3.13;1.50;;;18.20;99.90;;;;;;4983049;28;20026;-80
2022/10/26 08:31:02;;;;;;;2.73;1.20;;;18.30;99.90;;;;;;4966696;28;20242;-81
2022/10/26 08:33:28;;;;;;;2.65;1.15;;;18.30;99.90;;;;;;4955154;28;20022;-81
2022/10/26 08:35:55;;;;;;;2.15;1.10;;;18.40;99.90;;;;;;4980753;28;20442;-81
2022/10/26 08:38:21;;;;;;;4.38;1.20;;;18.40;99.90;;;;;;4968127;28;20375;-81
2022/10/26 08:40:47;;;;;;;2.37;1.20;;;18.50;99.90;;;;;;4966509;28;20231;-82
2022/10/26 08:43:25;;;;;;;2.13;1.10;;;18.60;99.90;;;;;;4957643;28;20501;-80
2022/10/26 08:46:03;;;;;;;2.00;1.15;;;18.60;99.90;;;;;;4959620;28;20037;-81
2022/10/26 08:48:37;;;;;;;2.30;1.00;;;18.70;99.90;;;;;;4965494;28;20308;-81
2022/10/26 08:51:17;;;;;;;3.55;1.00;;;18.80;99.90;;;;;;4976728;28;20034;-81
2022/10/26 08:53:49;;;;;;;1.95;1.10;;;19.00;99.90;;;;;;4973601;28;20502;-81
2022/10/26 08:56:23;;;;;;;2.13;1.00;;;19.00;99.90;;;;;;4981528;28;20428;-81
2022/10/26 08:58:54;;;;;;;3.83;1.10;;;19.20;99.90;;;;;;4944845;28;20479;-82
2022/10/26 09:01:20;;;;;;;2.63;1.10;;;19.40;99.90;;;;;;4977372;28;20645;-81
2022/10/26 09:03:46;;;;;;;2.65;1.10;;;19.70;99.90;;;;;;4990757;28;20030;-81
2022/10/26 09:06:11;;;;;;;2.33;1.30;;;20.00;99.90;;;;;;4957178;28;20573;-81
2022/10/26 09:08:48;;;;;;;3.33;1.30;;;20.50;99.90;;;;;;4982797;28;20026;-82
2022/10/26 09:11:29;;;;;;;2.03;1.00;;;21.00;99.90;;;;;;4962657;28;20251;-81
2022/10/26 09:14:25;;;;;;;1.97;1.20;;;21.50;99.90;;;;;;4951069;28;20026;-81
2022/10/26 09:17:32;;;;;;;1.95;0.98;;;22.00;99.90;;;;;;4976169;28;20112;-81
2022/10/26 09:20:31;;;;;;;3.38;1.20;;;22.30;99.90;;;;;;4982951;28;20565;-82
2022/10/26 09:23:01;;;;;;;2.50;1.20;;;22.70;99.90;;;;;;4979161;28;20026;-80
2022/10/26 09:25:38;;;;;;;2.08;1.13;;;23.00;99.90;;;;;;4979966;28;20281;-81
2022/10/26 09:28:04;;;;;;;2.33;1.17;;;23.20;99.90;;;;;;4968758;28;20451;-80
2022/10/26 09:30:31;;;;;;;1.90;1.30;;;23.30;99.90;;;;;;4971830;28;20526;-81
2022/10/26 09:33:01;;;;;;;1.77;0.98;;;23.40;99.90;;;;;;4965288;28;20072;-81
2022/10/26 09:35:49;;;;;;;2.67;1.20;;;23.60;99.90;;;;;;4980755;28;20038;-81
2022/10/26 09:38:28;;;;;;;3.88;1.20;;;23.90;99.50;;;;;;4959417;28;20034;-81
2022/10/26 09:41:28;;;;;;;2.47;1.20;;;24.10;99.90;;;;;;4969921;28;20074;-81
2022/10/26 09:44:06;;;;;;;2.33;1.33;;;24.30;99.60;;;;;;4947027;28;20030;-81
2022/10/26 09:46:52;;;;;;;3.22;1.20;;;24.50;99.90;;;;;;4964034;28;20721;-81
2022/10/26 09:49:22;;;;;;;4.03;1.25;;;24.70;99.20;;;;;;4986933;28;20022;-82
2022/10/26 09:51:48;;;;;;;2.42;1.17;;;24.90;99.90;;;;;;4970631;28;20022;-81
2022/10/26 09:54:19;;;;;;;2.33;1.30;;;25.20;99.90;;;;;;4972478;28;20037;-81
2022/10/26 09:56:55;;;;;;;2.47;1.15;;;25.50;99.90;;;;;;4997840;28;20026;-81
2022/10/26 09:59:23;;;;;;;2.72;1.20;;;25.80;99.90;;;;;;4929854;28;21151;-81
2022/10/26 10:01:49;;;;;;;1.70;1.20;;;26.30;99.90;;;;;;4994852;28;20109;-81
2022/10/26 10:04:24;;;;;;;2.20;1.30;;;26.60;99.90;;;;;;4968734;28;20087;-81
2022/10/26 10:07:02;;;;;;;2.15;1.30;;;27.00;99.90;;;;;;4967143;28;20478;-81
2022/10/26 10:09:28;;;;;;;2.17;1.20;;;27.40;97.90;;;;;;4980627;28;20120;-82
2022/10/26 10:11:57;;;;;;;1.92;1.02;;;27.70;99.90;;;;;;4965783;28;20505;-81
2022/10/26 10:14:38;;;;;;;2.23;1.07;;;28.00;99.30;;;;;;4952981;28;20072;-82
2022/10/26 10:17:18;;;;;;;2.00;1.35;;;28.40;95.60;;;;;;4981437;28;20029;-81
2022/10/26 10:19:44;;;;;;;1.38;1.10;;;28.60;98.00;;;;;;4991029;28;20073;-82
2022/10/26 10:22:21;;;;;;;1.75;1.10;;;28.80;97.60;;;;;;4970283;28;20030;-80
2022/10/26 10:24:55;;;;;;;1.88;1.05;;;29.00;95.30;;;;;;4964054;28;20146;-82
2022/10/26 10:27:22;;;;;;;2.30;1.23;;;29.10;95.50;;;;;;4970893;28;20445;-82
2022/10/26 10:29:56;;;;;;;2.47;1.35;;;29.20;97.10;;;;;;4963352;28;20767;-81
2022/10/26 10:32:29;;;;;;;2.67;1.20;;;29.40;94.20;;;;;;4989529;28;20026;-82
2022/10/26 10:34:56;;;;;;;1.30;1.10;;;29.50;95.90;;;;;;4968902;28;20465;-81
2022/10/26 10:37:40;;;;;;;1.63;1.10;;;29.70;96.60;;;;;;4979293;28;20033;-82
2022/10/26 10:40:13;;;;;;;1.20;1.00;;;29.90;96.60;;;;;;4977574;28;20256;-82
2022/10/26 10:42:41;;;;;;;1.92;1.30;;;30.00;95.10;;;;;;4974809;28;20022;-82
2022/10/26 10:45:20;;;;;;;2.80;1.30;;;30.20;94.90;;;;;;4984627;28;20240;-82
2022/10/26 10:48:19;;;;;;;1.52;1.10;;;30.40;92.90;;;;;;4972194;28;20041;-80
2022/10/26 10:51:04;;;;;;;3.30;1.30;;;30.50;91.30;;;;;;4969196;28;20072;-82
2022/10/26 10:53:48;;;;;;;1.40;0.90;;;30.80;92.10;;;;;;4991697;28;20022;-83
2022/10/26 10:56:41;;;;;;;2.22;1.30;;;30.90;91.60;;;;;;4979017;28;20514;-81
2022/10/26 10:59:18;;;;;;;2.40;1.20;;;31.10;90.50;;;;;;4976097;28;20723;-82
2022/10/26 11:02:12;;;;;;;1.50;1.20;;;31.20;91.80;;;;;;4943345;28;20030;-81
2022/10/26 11:05:21;;;;;;;1.88;1.30;;;31.30;91.10;;;;;;4975264;28;20026;-83
2022/10/26 11:08:01;;;;;;;2.53;1.20;;;31.20;87.70;;;;;;4907804;28;20031;-81
2022/10/26 11:10:32;;;;;;;2.45;1.10;;;31.20;91.50;;;;;;4965026;28;20107;-82
2022/10/26 11:13:03;;;;;;;1.77;1.13;;;31.20;92.10;;;;;;4967927;28;20129;-82
2022/10/26 11:15:33;;;;;;;1.98;1.45;;;31.20;91.30;;;;;;4970812;28;20080;-81
2022/10/26 11:18:31;;;;;;;2.28;1.13;;;31.20;90.00;;;;;;4933502;28;20045;-82
2022/10/26 11:21:24;;;;;;;2.20;1.20;;;31.10;85.30;;;;;;4979278;28;20034;-82
2022/10/26 11:24:12;;;;;;;1.88;0.98;;;31.00;88.30;;;;;;4972197;28;20042;-82
2022/10/26 11:26:54;;;;;;;1.52;1.13;;;30.80;89.70;;;;;;4967725;28;20042;-82
2022/10/26 11:29:31;;;;;;;2.50;1.50;;;30.70;87.00;;;;;;4951759;28;20248;-82
2022/10/26 11:32:12;;;;;;;3.10;1.33;;;30.60;86.30;;;;;;4968633;28;20104;-82
2022/10/26 11:35:06;;;;;;;1.73;1.20;;;30.60;90.30;;;;;;4961363;28;20243;-82
2022/10/26 11:37:45;;;;;;;2.15;1.10;;;30.70;88.10;;;;;;4971708;28;20392;-82
2022/10/26 11:40:24;;;;;;;2.58;1.17;;;30.70;91.00;;;;;;4992943;28;20026;-82
2022/10/26 11:43:07;;;;;;;2.00;1.30;;;30.80;86.90;;;;;;4979059;28;20381;-82
2022/10/26 11:45:46;;;;;;;1.73;1.10;;;30.90;88.00;;;;;;4972094;28;20580;-82
2022/10/26 11:48:30;;;;;;;1.80;1.27;;;31.00;86.70;;;;;;4962644;28;20121;-81
2022/10/26 12:01:11;;;;;;;1.65;1.20;;;31.20;84.00;;;;;;4973078;28;20576;-81
2022/10/26 12:03:44;;;;;;;2.13;1.00;;;31.30;86.80;;;;;;4954248;28;20041;-82
2022/10/26 12:06:11;;;;;;;2.30;1.20;;;31.40;90.10;;;;;;4965921;28;20022;-83
2022/10/26 12:08:53;;;;;;;2.17;1.20;;;31.50;91.10;;;;;;4970402;28;20501;-82
2022/10/26 12:11:31;;;;;;;2.42;1.30;;;31.70;86.00;;;;;;4979146;28;20025;-82
2022/10/26 12:14:14;;;;;;;1.45;1.20;;;31.70;89.50;;;;;;4980518;28;20017;-81
2022/10/26 12:17:18;;;;;;;1.63;1.10;;;31.70;85.00;;;;;;4972723;28;20044;-81
2022/10/26 12:20:04;;;;;;;1.95;1.20;;;31.60;81.10;;;;;;4967258;28;20026;-82
2022/10/26 12:22:36;;;;;;;2.03;1.25;;;31.50;81.70;;;;;;4995698;28;20037;-82
2022/10/26 12:25:05;;;;;;;1.70;1.27;;;31.40;81.40;;;;;;4954813;28;20522;-82
2022/10/26 12:27:53;;;;;;;1.95;1.00;;;31.40;82.90;;;;;;4972342;28;20418;-83
2022/10/26 12:30:18;;;;;;;1.67;1.10;;;31.30;83.10;;;;;;4995704;28;20046;-83
2022/10/26 12:32:44;;;;;;;2.28;1.02;;;31.30;84.30;;;;;;4976525;28;20072;-82
2022/10/26 12:35:39;;;;;;;1.67;1.10;;;31.20;83.60;;;;;;4973073;28;20026;-81
2022/10/26 12:38:23;;;;;;;1.65;1.10;;;31.20;77.70;;;;;;4961886;28;20473;-82
2022/10/26 12:41:16;;;;;;;2.22;1.10;;;31.20;76.10;;;;;;4978151;28;20049;-81
2022/10/26 12:43:42;;;;;;;1.25;1.10;;;31.20;73.90;;;;;;4948448;28;20228;-81
2022/10/26 12:46:14;;;;;;;1.90;1.10;;;31.20;82.30;;;;;;4995525;28;20109;-81
2022/10/26 12:48:48;;;;;;;2.00;1.02;;;31.20;77.50;;;;;;4979086;28;20703;-81
2022/10/26 12:51:25;;;;;;;1.10;1.00;;;31.20;78.90;;;;;;4967779;28;20034;-82
2022/10/26 12:54:03;;;;;;;1.10;1.00;;;31.20;77.80;;;;;;4978313;28;20036;-81
2022/10/26 12:56:56;;;;;;;1.93;1.13;;;31.20;79.70;;;;;;4977409;28;20042;-80
2022/10/26 12:59:41;;;;;;;1.35;1.10;;;31.30;78.80;;;;;;4955512;28;20053;-83
2022/10/26 13:02:22;;;;;;;1.95;1.00;;;31.30;75.30;;;;;;4981002;28;20041;-82
2022/10/26 13:05:25;;;;;;;3.03;1.38;;;31.20;79.40;;;;;;4981125;28;20406;-81
2022/10/26 13:07:59;;;;;;;2.17;1.30;;;31.00;74.20;;;;;;4985726;28;20060;-81
2022/10/26 13:10:25;;;;;;;2.60;1.13;;;30.90;78.00;;;;;;4961067;28;20050;-81
2022/10/26 13:12:58;;;;;;;2.22;0.90;;;30.70;77.60;;;;;;4983085;28;20220;-82
2022/10/26 13:15:56;;;;;;;2.50;1.00;;;30.60;77.50;;;;;;4968513;28;20044;-81
2022/10/26 13:18:22;;;;;;;2.25;1.00;;;30.50;71.90;;;;;;4988189;28;20544;-81
2022/10/26 13:21:13;;;;;;;3.03;1.10;;;30.40;77.70;;;;;;4955161;28;20029;-81
2022/10/26 13:24:00;;;;;;;2.20;0.90;;;30.30;72.80;;;;;;4966396;28;20339;-82